Time;durP1;ratioP1;P1;durP2;ratioP2;P2;SDS_P1;SDS_P2;PMS_P1;PMS_P2;Temp;Humidity;BMP_temperature;BMP_pressure;BME280_temperature;BME280_humidity;BME280_pressure;Samples;Min_cycle;Max_cycle;Signal;HPM_P1;HPM_P2
2021/11/20 00:00:17;;;;;;;93.18;39.58;;;;;;;2.97;100.00;98947.50;4972476;28;20519;-72
2021/11/20 00:02:43;;;;;;;180.13;38.65;;;;;;;3.06;100.00;98940.75;4972466;28;20045;-71
2021/11/20 00:05:12;;;;;;;101.20;38.13;;;;;;;2.94;100.00;98937.13;4972530;28;20507;-71
2021/11/20 00:07:37;;;;;;;264.48;45.05;;;;;;;2.81;100.00;98929.97;4972136;28;20030;-73
2021/11/20 00:10:07;;;;;;;160.95;41.47;;;;;;;2.91;100.00;98933.00;4972155;28;20073;-71
2021/11/20 00:12:33;;;;;;;143.93;40.25;;;;;;;2.90;100.00;98934.03;4972549;28;20038;-73
2021/11/20 00:14:59;;;;;;;265.95;42.30;;;;;;;2.93;100.00;98930.06;4972448;28;20027;-73
2021/11/20 00:17:26;;;;;;;188.70;41.63;;;;;;;2.91;100.00;98924.06;4971971;28;20021;-70
2021/11/20 00:19:51;;;;;;;115.93;38.95;;;;;;;2.93;100.00;98922.78;4972893;28;20563;-72
2021/11/20 00:22:22;;;;;;;106.40;38.28;;;;;;;3.05;100.00;98912.06;4954261;28;20121;-71
2021/11/20 00:24:52;;;;;;;240.55;40.58;;;;;;;3.02;100.00;98910.63;4969021;28;20034;-73
2021/11/20 00:27:25;;;;;;;280.65;47.00;;;;;;;3.00;100.00;98914.63;4971038;28;20098;-71
2021/11/20 00:30:04;;;;;;;153.52;40.60;;;;;;;3.08;100.00;98912.44;4971573;28;20034;-71
2021/11/20 00:32:34;;;;;;;159.55;37.65;;;;;;;3.03;100.00;98917.69;4969362;28;20030;-72
2021/11/20 00:35:05;;;;;;;157.10;40.78;;;;;;;3.06;100.00;98914.56;4954120;28;20038;-71
2021/11/20 00:37:31;;;;;;;227.73;43.88;;;;;;;3.03;100.00;98908.75;4971862;28;20023;-72
2021/11/20 00:39:56;;;;;;;236.75;45.08;;;;;;;3.03;100.00;98903.38;4971556;28;20030;-71
2021/11/20 00:42:22;;;;;;;155.43;43.63;;;;;;;3.06;100.00;98921.84;4971981;28;20480;-71
2021/11/20 00:44:48;;;;;;;383.50;53.40;;;;;;;3.04;100.00;98926.59;4971971;28;20023;-71
2021/11/20 00:47:15;;;;;;;144.98;43.55;;;;;;;3.09;100.00;98924.91;4971321;28;20023;-71
2021/11/20 00:49:42;;;;;;;304.02;49.22;;;;;;;3.06;100.00;98928.06;4971533;28;20070;-71
2021/11/20 00:52:07;;;;;;;185.70;41.40;;;;;;;3.04;100.00;98926.59;4971617;28;20065;-72
2021/11/20 00:54:34;;;;;;;147.10;36.97;;;;;;;3.10;100.00;98939.25;4971502;28;20062;-71
2021/11/20 00:56:59;;;;;;;116.57;33.83;;;;;;;3.19;100.00;98936.03;4971269;28;20038;-71
2021/11/20 00:59:25;;;;;;;144.90;31.55;;;;;;;3.10;100.00;98914.94;4953724;28;20029;-71
2021/11/20 01:01:57;;;;;;;152.20;31.75;;;;;;;3.01;100.00;98911.69;4971223;28;20066;-72
2021/11/20 01:04:25;;;;;;;134.25;31.17;;;;;;;3.09;100.00;98924.09;4971140;28;20081;-71
2021/11/20 01:06:52;;;;;;;80.53;29.77;;;;;;;3.07;100.00;98927.00;4971299;28;20113;-72
2021/11/20 01:09:27;;;;;;;81.18;29.02;;;;;;;3.10;100.00;98909.53;4971248;28;20034;-69
2021/11/20 01:12:04;;;;;;;63.40;26.42;;;;;;;3.05;100.00;98910.19;4971425;28;20031;-71
2021/11/20 01:14:31;;;;;;;115.90;26.02;;;;;;;3.11;100.00;98903.88;4971647;28;20035;-71
2021/11/20 01:16:58;;;;;;;116.78;28.60;;;;;;;3.09;100.00;98900.59;4971272;28;20034;-71
2021/11/20 01:19:25;;;;;;;73.75;24.67;;;;;;;3.13;100.00;98903.69;4971212;28;20514;-70
2021/11/20 01:21:52;;;;;;;77.32;28.27;;;;;;;3.10;100.00;98907.63;4971069;28;20553;-70
2021/11/20 01:24:19;;;;;;;84.43;29.67;;;;;;;3.10;100.00;98912.25;4971087;28;20030;-71
2021/11/20 01:26:45;;;;;;;179.07;31.70;;;;;;;3.02;100.00;98909.81;4970979;28;20027;-69
2021/11/20 01:29:12;;;;;;;100.10;29.52;;;;;;;3.08;100.00;98895.41;4971030;28;20041;-70
2021/11/20 01:31:40;;;;;;;138.45;30.52;;;;;;;3.03;100.00;98895.25;4969262;28;20866;-71
2021/11/20 01:34:07;;;;;;;152.13;29.05;;;;;;;2.97;100.00;98898.84;4969510;28;20023;-70
2021/11/20 01:36:35;;;;;;;183.63;31.85;;;;;;;2.94;100.00;98883.09;4959548;28;20041;-71
2021/11/20 01:39:07;;;;;;;245.05;32.97;;;;;;;2.71;100.00;98883.72;4973778;28;20030;-72
2021/11/20 01:41:34;;;;;;;190.48;33.60;;;;;;;2.77;100.00;98882.00;4969163;28;20130;-71
2021/11/20 01:44:10;;;;;;;174.23;34.80;;;;;;;2.71;100.00;98897.22;4956143;29;20023;-70
2021/11/20 01:46:36;;;;;;;287.85;36.80;;;;;;;2.66;100.00;98899.78;4963767;28;20031;-72
2021/11/20 01:49:13;;;;;;;192.25;35.45;;;;;;;2.78;100.00;98889.06;4977380;28;20712;-72
2021/11/20 01:51:44;;;;;;;164.75;32.03;;;;;;;2.77;100.00;98882.00;4974788;28;20387;-72
2021/11/20 01:54:26;;;;;;;91.50;31.80;;;;;;;2.86;100.00;98886.91;4977403;28;20624;-72
2021/11/20 01:57:12;;;;;;;213.25;39.15;;;;;;;2.81;100.00;98884.03;4975436;28;20031;-72
2021/11/20 01:59:41;;;;;;;169.43;33.72;;;;;;;2.85;100.00;98889.84;4974582;28;20031;-73
2021/11/20 02:02:31;;;;;;;158.93;33.17;;;;;;;2.95;100.00;98885.56;4974581;28;20034;-72
2021/11/20 02:05:02;;;;;;;129.40;32.25;;;;;;;3.01;100.00;98890.06;4974474;28;20085;-72
2021/11/20 02:07:36;;;;;;;214.43;34.58;;;;;;;3.00;100.00;98884.91;4974019;28;20026;-72
2021/11/20 02:10:26;;;;;;;143.98;35.17;;;;;;;2.93;100.00;98886.84;4974414;28;20102;-72
2021/11/20 02:12:55;;;;;;;375.15;43.05;;;;;;;2.84;100.00;98889.00;4974144;28;20125;-73
2021/11/20 02:15:26;;;;;;;316.02;36.38;;;;;;;2.77;100.00;98877.44;4976647;28;20030;-72
2021/11/20 02:17:57;;;;;;;136.05;30.13;;;;;;;2.87;100.00;98875.06;4978261;28;20045;-72
2021/11/20 02:20:32;;;;;;;387.02;41.38;;;;;;;2.69;100.00;98873.13;4978287;28;20019;-72
2021/11/20 02:22:57;;;;;;;219.95;33.88;;;;;;;2.77;100.00;98874.72;4977263;28;20046;-73
2021/11/20 02:25:22;;;;;;;145.10;31.15;;;;;;;2.82;100.00;98874.06;4974380;28;20027;-72
2021/11/20 02:27:53;;;;;;;193.60;32.70;;;;;;;2.78;100.00;98860.19;4973934;28;20039;-72
2021/11/20 02:30:21;;;;;;;128.13;33.20;;;;;;;2.80;100.00;98870.75;4974317;28;20039;-72
2021/11/20 02:32:52;;;;;;;276.13;38.53;;;;;;;2.84;100.00;98861.16;4973674;28;20054;-71
2021/11/20 02:35:22;;;;;;;119.97;32.67;;;;;;;2.93;100.00;98860.66;4973471;28;20077;-72
2021/11/20 02:37:48;;;;;;;218.80;36.60;;;;;;;2.99;100.00;98859.75;4973470;28;20435;-72
2021/11/20 02:40:15;;;;;;;133.32;32.15;;;;;;;2.98;100.00;98863.50;4973627;28;20058;-72
2021/11/20 02:42:43;;;;;;;433.77;43.63;;;;;;;3.01;100.00;98857.63;4973773;28;20031;-72
2021/11/20 02:45:50;;;;;;;122.25;33.83;;;;;;;2.99;100.00;98857.03;4955876;28;20077;-72
2021/11/20 02:48:17;;;;;;;91.38;31.85;;;;;;;2.91;100.00;98846.53;4970719;28;20062;-72
2021/11/20 02:50:44;;;;;;;151.55;35.58;;;;;;;2.90;100.00;98847.59;4972314;28;20483;-71
2021/11/20 02:53:33;;;;;;;99.80;36.33;;;;;;;2.82;100.00;98842.47;5107387;27;20885;-72
2021/11/20 02:55:58;;;;;;;156.07;38.38;;;;;;;2.76;100.00;98848.75;5108007;28;20039;-71
2021/11/20 02:58:25;;;;;;;275.40;40.97;;;;;;;2.62;100.00;98847.25;5107922;28;20498;-70
2021/11/20 03:00:58;;;;;;;200.77;41.95;;;;;;;2.50;100.00;98846.31;5107096;28;20036;-71
2021/11/20 03:03:24;;;;;;;199.57;40.00;;;;;;;2.44;100.00;98841.81;5123685;27;20123;-70
2021/11/20 03:05:49;;;;;;;159.88;42.20;;;;;;;2.54;100.00;98840.25;5107502;28;20107;-71
2021/11/20 03:08:15;;;;;;;119.53;35.83;;;;;;;2.69;100.00;98839.91;5106197;28;20024;-71
2021/11/20 03:10:41;;;;;;;313.98;45.30;;;;;;;2.67;100.00;98840.13;5107930;28;20110;-71
2021/11/20 03:13:07;;;;;;;153.23;40.80;;;;;;;2.65;100.00;98836.00;5106591;28;20035;-71
2021/11/20 03:15:33;;;;;;;259.73;43.53;;;;;;;2.59;100.00;98832.31;5107455;28;20027;-72
2021/11/20 03:17:58;;;;;;;112.20;36.83;;;;;;;2.67;100.00;98828.50;5107226;28;20023;-70
2021/11/20 03:20:24;;;;;;;159.95;38.63;;;;;;;2.59;100.00;98832.31;5106726;28;20028;-71
2021/11/20 03:22:57;;;;;;;146.85;39.85;;;;;;;2.70;100.00;98828.03;5106440;28;20019;-72
2021/11/20 03:25:23;;;;;;;149.43;37.63;;;;;;;2.69;100.00;98826.41;5105224;28;20496;-71
2021/11/20 03:27:49;;;;;;;164.48;38.35;;;;;;;2.70;100.00;98822.66;5106768;28;20062;-73
2021/11/20 03:30:15;;;;;;;108.30;36.95;;;;;;;2.73;100.00;98816.78;5100114;28;20441;-71
2021/11/20 03:32:41;;;;;;;149.02;38.35;;;;;;;2.80;100.00;98822.13;5086304;28;20035;-71
2021/11/20 03:35:07;;;;;;;182.90;43.95;;;;;;;2.85;100.00;98814.19;5089265;28;20024;-72
2021/11/20 03:37:33;;;;;;;165.68;39.67;;;;;;;2.81;100.00;98807.59;5105987;28;20020;-71
2021/11/20 03:39:59;;;;;;;120.38;33.90;;;;;;;2.85;100.00;98793.38;5105950;28;20070;-72
2021/11/20 03:42:24;;;;;;;86.85;32.20;;;;;;;2.85;100.00;98793.38;5107211;28;20042;-72
2021/11/20 03:44:50;;;;;;;86.38;32.60;;;;;;;2.89;100.00;98800.00;5107559;28;20020;-72
2021/11/20 03:47:16;;;;;;;80.45;31.90;;;;;;;2.84;100.00;98810.66;5104783;28;20038;-72
2021/11/20 03:49:43;;;;;;;124.25;33.45;;;;;;;2.89;100.00;98805.41;5104931;28;20055;-71
2021/11/20 03:52:09;;;;;;;96.32;32.58;;;;;;;2.85;100.00;98812.28;5108355;28;20066;-72
2021/11/20 03:54:35;;;;;;;110.53;32.33;;;;;;;2.82;100.00;98801.94;5107409;28;20023;-72
2021/11/20 03:57:01;;;;;;;247.60;36.53;;;;;;;2.65;100.00;98792.78;5106093;28;20470;-71
2021/11/20 03:59:26;;;;;;;144.00;31.63;;;;;;;2.61;100.00;98794.28;5105911;28;20065;-71
2021/11/20 04:01:52;;;;;;;128.95;32.08;;;;;;;2.64;100.00;98797.38;5105900;28;20016;-71
2021/11/20 04:04:18;;;;;;;109.80;30.63;;;;;;;2.74;100.00;98796.84;5096200;28;20024;-72
2021/11/20 04:06:45;;;;;;;302.33;40.95;;;;;;;2.72;100.00;98793.56;5094218;28;20028;-71
2021/11/20 04:09:12;;;;;;;94.53;30.67;;;;;;;2.66;100.00;98799.84;5093353;28;20016;-72
2021/11/20 04:11:39;;;;;;;94.75;31.15;;;;;;;2.77;100.00;98806.38;5093157;28;20039;-72
2021/11/20 04:14:05;;;;;;;64.60;29.25;;;;;;;2.88;100.00;98798.34;5093480;28;20097;-71
2021/11/20 04:16:32;;;;;;;133.90;29.58;;;;;;;2.88;100.00;98803.75;5092830;28;20478;-71
2021/11/20 04:18:59;;;;;;;72.57;27.33;;;;;;;2.93;100.00;98801.22;5091236;28;20031;-72
2021/11/20 04:21:25;;;;;;;73.18;26.92;;;;;;;2.83;100.00;98800.91;5092545;28;20028;-71
2021/11/20 04:23:54;;;;;;;160.10;33.22;;;;;;;2.77;100.00;98793.69;5092651;28;20430;-72
2021/11/20 04:26:22;;;;;;;133.38;32.10;;;;;;;2.74;100.00;98780.66;5092920;28;20043;-73
2021/11/20 04:28:48;;;;;;;97.82;28.52;;;;;;;2.80;100.00;98787.00;5092982;28;20443;-71
2021/11/20 04:31:13;;;;;;;314.63;38.58;;;;;;;2.64;100.00;98791.13;5079726;28;20028;-72
2021/11/20 04:33:39;;;;;;;115.40;32.15;;;;;;;2.60;100.00;98793.44;5091432;28;20031;-71
2021/11/20 04:36:06;;;;;;;121.10;30.88;;;;;;;2.63;100.00;98790.31;5091259;28;20032;-71
2021/11/20 04:38:33;;;;;;;144.45;31.50;;;;;;;2.69;100.00;98788.59;5089821;28;20115;-71
2021/11/20 04:40:58;;;;;;;138.68;30.55;;;;;;;2.68;100.00;98789.66;5091415;28;20103;-71
2021/11/20 04:43:24;;;;;;;107.35;30.92;;;;;;;2.61;100.00;98788.88;5091059;28;20111;-71
2021/11/20 04:45:51;;;;;;;212.00;34.83;;;;;;;2.75;100.00;98782.31;5092388;28;20028;-70
2021/11/20 04:48:17;;;;;;;86.28;29.80;;;;;;;2.76;100.00;98778.53;5091804;28;20396;-71
2021/11/20 04:50:44;;;;;;;89.82;28.42;;;;;;;2.77;100.00;98782.06;5091267;28;20035;-71
2021/11/20 04:53:09;;;;;;;59.65;28.25;;;;;;;2.76;100.00;98786.63;5090827;28;20055;-71
2021/11/20 04:55:35;;;;;;;99.32;29.63;;;;;;;2.74;100.00;98788.75;5092316;28;20519;-71
2021/11/20 04:58:01;;;;;;;157.65;30.83;;;;;;;2.64;100.00;98785.72;5092396;28;20028;-71
2021/11/20 05:00:34;;;;;;;128.13;29.88;;;;;;;2.61;100.00;98791.59;5092113;28;20024;-72
2021/11/20 05:03:05;;;;;;;142.88;30.77;;;;;;;2.57;100.00;98785.81;5090539;28;20057;-72
2021/11/20 05:05:32;;;;;;;236.57;35.33;;;;;;;2.67;100.00;98793.38;5092123;28;20078;-71
2021/11/20 05:07:57;;;;;;;216.93;34.60;;;;;;;2.63;100.00;98779.50;5091265;28;20391;-71
2021/11/20 05:10:23;;;;;;;70.57;27.35;;;;;;;2.66;100.00;98783.66;5089740;28;20032;-71
2021/11/20 05:12:48;;;;;;;197.80;31.00;;;;;;;2.68;100.00;98776.97;5088224;28;20388;-72
2021/11/20 05:15:15;;;;;;;123.65;29.38;;;;;;;2.68;100.00;98786.94;5090626;28;20049;-71
2021/11/20 05:17:40;;;;;;;100.28;26.35;;;;;;;2.64;100.00;98786.56;5091159;28;20024;-71
2021/11/20 05:20:07;;;;;;;103.15;29.42;;;;;;;2.51;100.00;98785.88;5091261;28;20020;-72
2021/11/20 05:22:33;;;;;;;148.32;29.70;;;;;;;2.53;100.00;98778.38;5091997;28;20031;-71
2021/11/20 05:24:58;;;;;;;113.40;27.77;;;;;;;2.50;100.00;98774.28;5091532;28;20035;-71
2021/11/20 05:27:24;;;;;;;105.47;28.63;;;;;;;2.52;100.00;98787.53;5086578;28;20166;-72
2021/11/20 05:32:23;;;;;;;73.10;24.77;;;;;;;2.60;100.00;98789.97;5091128;28;20388;-72
2021/11/20 05:34:49;;;;;;;96.95;25.20;;;;;;;2.59;100.00;98788.28;5091215;28;20035;-73
2021/11/20 05:37:14;;;;;;;187.40;28.77;;;;;;;2.60;100.00;98784.56;5091937;28;20498;-72
2021/11/20 05:39:40;;;;;;;240.43;29.17;;;;;;;2.59;100.00;98781.03;5090481;28;20020;-72
2021/11/20 05:42:06;;;;;;;97.68;24.70;;;;;;;2.52;100.00;98785.66;5090429;28;20085;-72
2021/11/20 05:44:32;;;;;;;135.65;27.92;;;;;;;2.56;100.00;98784.16;5090965;28;20027;-72
2021/11/20 05:47:00;;;;;;;124.32;26.20;;;;;;;2.43;100.00;98786.16;5091301;28;20372;-72
2021/11/20 05:49:27;;;;;;;175.55;26.38;;;;;;;2.42;100.00;98782.63;5091793;28;20024;-71
2021/11/20 05:51:53;;;;;;;139.85;28.25;;;;;;;2.43;100.00;98784.31;5091479;28;20156;-73
2021/11/20 05:54:18;;;;;;;242.50;34.25;;;;;;;2.51;100.00;98793.97;5090200;28;20110;-72
2021/11/20 05:56:44;;;;;;;100.60;27.42;;;;;;;2.64;100.00;98796.53;5093637;28;20016;-77
2021/11/20 05:59:09;;;;;;;211.05;33.55;;;;;;;2.61;100.00;98788.88;5093753;28;20096;-71
2021/11/20 06:01:35;;;;;;;94.18;28.95;;;;;;;2.62;100.00;98788.66;5091546;28;20415;-72
2021/11/20 06:04:00;;;;;;;128.98;28.45;;;;;;;2.60;100.00;98790.75;5092499;28;20428;-75
2021/11/20 06:06:26;;;;;;;422.13;34.00;;;;;;;2.62;100.00;98795.94;5091924;28;20032;-73
2021/11/20 06:08:51;;;;;;;146.15;26.55;;;;;;;2.50;100.00;98793.16;5091032;28;20221;-72
2021/11/20 06:11:18;;;;;;;265.92;30.88;;;;;;;2.53;100.00;98797.28;5089281;28;20056;-72
2021/11/20 06:13:44;;;;;;;276.80;31.75;;;;;;;2.45;100.00;98800.25;5090376;28;20032;-72
2021/11/20 06:16:10;;;;;;;69.13;25.40;;;;;;;2.38;100.00;98803.00;5090615;28;20473;-72
2021/11/20 06:18:35;;;;;;;334.60;37.83;;;;;;;2.34;100.00;98809.94;5090541;28;20015;-72
2021/11/20 06:21:03;;;;;;;252.13;35.58;;;;;;;2.32;100.00;98808.50;5090060;28;20040;-72
2021/11/20 06:23:30;;;;;;;219.68;33.47;;;;;;;2.41;100.00;98812.56;5087279;28;20013;-72
2021/11/20 06:25:57;;;;;;;144.52;30.33;;;;;;;2.45;100.00;98803.78;5089613;28;20028;-72
2021/11/20 06:28:23;;;;;;;183.13;30.38;;;;;;;2.47;100.00;98811.69;5089915;28;20055;-71
2021/11/20 06:30:49;;;;;;;149.85;29.13;;;;;;;2.60;100.00;98808.84;5089750;28;20020;-71
2021/11/20 06:33:14;;;;;;;145.50;30.60;;;;;;;2.59;100.00;98804.50;5091196;28;20046;-71
2021/11/20 06:35:40;;;;;;;317.48;36.30;;;;;;;2.59;100.00;98809.91;5090948;28;20369;-72
2021/11/20 06:38:06;;;;;;;83.82;29.05;;;;;;;2.68;100.00;98813.94;5090943;28;20032;-72
2021/11/20 06:40:38;;;;;;;124.22;26.95;;;;;;;2.51;100.00;98811.00;5090924;28;20107;-72
2021/11/20 06:43:06;;;;;;;62.72;26.30;;;;;;;2.55;100.00;98820.31;5090109;28;20020;-72
2021/11/20 06:45:36;;;;;;;62.03;26.38;;;;;;;2.75;100.00;98830.09;5090612;28;20500;-70
2021/11/20 06:48:02;;;;;;;95.47;27.70;;;;;;;2.78;100.00;98835.03;5090009;28;20028;-71
2021/11/20 06:50:30;;;;;;;64.47;26.08;;;;;;;2.88;100.00;98829.97;5090874;28;20020;-72
2021/11/20 06:52:56;;;;;;;183.13;28.48;;;;;;;2.82;100.00;98823.56;5090653;28;20044;-72
2021/11/20 06:55:21;;;;;;;152.85;28.15;;;;;;;2.70;100.00;98828.03;5088879;28;20193;-72
2021/11/20 06:57:55;;;;;;;205.43;31.50;;;;;;;2.68;100.00;98828.28;5089413;28;20444;-74
2021/11/20 07:00:28;;;;;;;120.05;27.13;;;;;;;2.68;100.00;98830.16;5089592;28;20032;-72
2021/11/20 07:03:07;;;;;;;67.68;25.75;;;;;;;2.85;100.00;98839.31;5084958;28;20029;-74
2021/11/20 07:05:37;;;;;;;81.13;26.88;;;;;;;2.91;100.00;98824.94;5077251;28;20032;-72
2021/11/20 07:08:04;;;;;;;104.13;26.23;;;;;;;2.97;100.00;98820.50;5069788;28;20024;-70
2021/11/20 07:10:30;;;;;;;104.80;26.10;;;;;;;2.96;100.00;98822.38;5070774;28;20052;-71
2021/11/20 07:12:57;;;;;;;223.93;28.92;;;;;;;2.75;100.00;98825.53;5070312;28;20086;-72
2021/11/20 07:15:24;;;;;;;171.15;25.30;;;;;;;2.69;100.00;98826.41;5070782;28;20067;-72
2021/11/20 07:17:50;;;;;;;92.60;25.00;;;;;;;2.77;100.00;98827.97;5085553;28;20035;-72
2021/11/20 07:20:17;;;;;;;215.80;28.73;;;;;;;2.83;100.00;98835.19;5090989;28;20028;-73
2021/11/20 07:22:43;;;;;;;79.53;25.92;;;;;;;2.97;100.00;98832.13;5087807;28;20330;-73
2021/11/20 07:25:10;;;;;;;98.90;25.67;;;;;;;3.02;100.00;98821.47;5089808;28;20554;-74
2021/11/20 07:27:35;;;;;;;175.60;26.38;;;;;;;2.70;100.00;98823.47;5090547;28;20024;-74
2021/11/20 07:30:01;;;;;;;130.90;27.02;;;;;;;2.66;100.00;98827.66;5089455;28;20049;-75
2021/11/20 07:32:27;;;;;;;212.18;30.20;;;;;;;2.40;100.00;98824.41;5087338;28;20392;-74
2021/11/20 07:34:54;;;;;;;128.63;30.25;;;;;;;2.55;100.00;98824.88;5086919;28;20043;-72
2021/11/20 07:37:20;;;;;;;147.23;27.27;;;;;;;2.57;100.00;98828.16;5087360;28;20024;-72
2021/11/20 07:39:46;;;;;;;62.22;26.42;;;;;;;2.91;100.00;98835.75;5091608;28;20028;-71
2021/11/20 07:42:11;;;;;;;159.98;29.10;;;;;;;2.84;100.00;98837.69;5091488;28;20032;-73
2021/11/20 07:44:36;;;;;;;173.15;29.50;;;;;;;2.56;100.00;98838.16;5093911;28;20020;-76
2021/11/20 07:47:02;;;;;;;219.18;29.63;;;;;;;2.55;100.00;98830.28;5092255;28;20042;-73
2021/11/20 07:49:28;;;;;;;183.32;31.52;;;;;;;2.68;100.00;98828.28;5091773;28;20044;-74
2021/11/20 07:51:53;;;;;;;236.05;31.90;;;;;;;2.80;100.00;98825.66;5093957;28;20525;-73
2021/11/20 07:54:19;;;;;;;120.88;26.30;;;;;;;2.67;100.00;98828.50;5091230;28;20477;-73
2021/11/20 07:56:45;;;;;;;93.30;27.67;;;;;;;2.80;100.00;98828.38;5091068;28;20043;-73
2021/11/20 07:59:13;;;;;;;90.95;27.35;;;;;;;2.91;100.00;98824.94;5091464;28;20062;-72
2021/11/20 08:01:39;;;;;;;108.95;28.92;;;;;;;2.92;100.00;98820.31;5089918;28;20484;-71
2021/11/20 08:04:05;;;;;;;168.18;27.30;;;;;;;2.96;100.00;98822.38;5091950;28;20024;-72
2021/11/20 08:06:32;;;;;;;151.43;26.35;;;;;;;2.96;100.00;98822.38;5090794;28;20020;-73
2021/11/20 08:09:03;;;;;;;79.57;27.20;;;;;;;3.08;100.00;98825.13;5090256;28;20350;-73
2021/11/20 08:11:29;;;;;;;65.05;25.48;;;;;;;3.21;100.00;98831.22;5089334;28;20016;-75
2021/11/20 08:13:54;;;;;;;216.15;27.70;;;;;;;3.03;100.00;98833.94;5091164;28;20036;-73
2021/11/20 08:16:21;;;;;;;114.25;25.52;;;;;;;3.11;100.00;98828.22;5092486;28;20012;-73
2021/11/20 08:18:47;;;;;;;179.45;26.58;;;;;;;2.92;100.00;98834.66;5089998;28;20028;-73
2021/11/20 08:21:12;;;;;;;140.07;28.48;;;;;;;3.08;100.00;98834.06;5091422;28;20425;-74
2021/11/20 08:23:42;;;;;;;149.68;28.77;;;;;;;3.13;100.00;98834.22;5090413;28;20582;-72
2021/11/20 08:26:08;;;;;;;192.43;30.17;;;;;;;2.86;100.00;98837.44;5091554;28;20512;-71
2021/11/20 08:28:34;;;;;;;165.38;29.02;;;;;;;3.08;100.00;98839.47;5088707;28;21659;-78
2021/11/20 08:30:59;;;;;;;182.27;29.23;;;;;;;3.12;100.00;98840.69;5090707;28;20020;-72
2021/11/20 08:33:25;;;;;;;116.88;27.30;;;;;;;3.15;100.00;98842.09;5091305;28;20040;-72
2021/11/20 08:35:51;;;;;;;87.55;28.10;;;;;;;3.14;100.00;98835.03;5089010;28;20038;-71
2021/11/20 08:38:17;;;;;;;101.60;27.23;;;;;;;3.36;100.00;98838.09;5090848;28;20560;-71
2021/11/20 08:40:46;;;;;;;163.65;28.88;;;;;;;3.56;100.00;98841.38;5089845;28;20077;-74
2021/11/20 08:43:11;;;;;;;218.05;32.10;;;;;;;3.22;100.00;98849.09;5085035;28;20024;-75
2021/11/20 08:45:43;;;;;;;101.82;27.58;;;;;;;3.42;100.00;98843.44;5090178;28;20031;-75
2021/11/20 08:48:11;;;;;;;85.15;30.30;;;;;;;3.37;100.00;98840.59;5088968;28;20722;-74
2021/11/20 08:50:40;;;;;;;128.75;30.98;;;;;;;3.31;100.00;98836.09;5093162;28;20032;-75
2021/11/20 08:53:06;;;;;;;204.07;36.88;;;;;;;3.03;100.00;98839.34;5091549;28;20049;-76
2021/11/20 08:55:32;;;;;;;247.77;37.30;;;;;;;3.22;100.00;98827.47;5096353;28;20032;-74
2021/11/20 08:57:58;;;;;;;130.30;36.17;;;;;;;3.28;100.00;98833.00;5098716;28;20165;-77
2021/11/20 09:00:52;;;;;;;85.70;36.50;;;;;;;3.39;100.00;98848.47;5099654;28;20045;-77
2021/11/20 09:03:39;;;;;;;86.65;33.53;;;;;;;3.82;100.00;98843.75;5111225;28;20067;-76
2021/11/20 09:06:10;;;;;;;111.45;34.45;;;;;;;3.95;100.00;98843.53;5093019;28;20057;-75
2021/11/20 09:08:59;;;;;;;100.15;33.25;;;;;;;3.95;100.00;98848.94;5091447;28;20036;-77
2021/11/20 09:11:27;;;;;;;81.65;33.30;;;;;;;4.06;100.00;98850.03;5078130;28;20068;-77
2021/11/20 09:13:58;;;;;;;80.15;31.88;;;;;;;4.01;100.00;98855.31;5092348;28;20020;-76
2021/11/20 09:16:25;;;;;;;97.25;33.58;;;;;;;3.90;100.00;98850.69;5092795;28;20024;-77
2021/11/20 09:18:51;;;;;;;125.72;33.25;;;;;;;3.84;100.00;98849.72;5092279;28;20028;-76
2021/11/20 09:21:17;;;;;;;129.60;34.78;;;;;;;3.59;100.00;98851.75;5092835;28;20082;-77
2021/11/20 09:23:44;;;;;;;89.65;31.83;;;;;;;3.64;100.00;98841.88;5090841;28;20082;-74
2021/11/20 09:26:09;;;;;;;88.53;33.22;;;;;;;3.67;100.00;98857.66;5090761;28;20062;-76
2021/11/20 09:28:35;;;;;;;78.95;34.55;;;;;;;3.71;100.00;98849.91;5089478;28;20524;-76
2021/11/20 09:31:04;;;;;;;105.13;34.50;;;;;;;3.72;100.00;98854.28;5093309;28;20537;-76
2021/11/20 09:33:29;;;;;;;98.13;35.30;;;;;;;3.77;100.00;98851.69;5092516;28;20430;-76
2021/11/20 09:35:55;;;;;;;96.75;36.47;;;;;;;3.68;100.00;98847.66;5090800;28;20028;-75
2021/11/20 09:38:23;;;;;;;79.25;32.50;;;;;;;3.92;100.00;98852.09;5090238;28;20028;-74
2021/11/20 09:40:53;;;;;;;74.78;34.13;;;;;;;3.97;100.00;98844.13;5092565;28;20020;-76
2021/11/20 09:43:28;;;;;;;76.43;34.80;;;;;;;4.20;100.00;98846.06;5095949;28;20036;-76
2021/11/20 09:46:17;;;;;;;79.35;32.38;;;;;;;4.29;100.00;98845.47;5093454;28;20070;-74
2021/11/20 09:48:49;;;;;;;78.60;32.70;;;;;;;4.55;100.00;98844.22;5080561;28;20055;-75
2021/11/20 09:51:22;;;;;;;78.40;33.20;;;;;;;4.83;100.00;98838.09;5090317;28;20028;-74
2021/11/20 09:53:47;;;;;;;74.95;35.22;;;;;;;4.92;100.00;98841.28;5091919;28;20067;-74
2021/11/20 09:56:23;;;;;;;76.93;36.55;;;;;;;5.11;100.00;98838.19;5092023;28;20059;-74
2021/11/20 09:58:51;;;;;;;;;;;;;;;5.12;100.00;98834.41;5090409;28;20392;-74
2021/11/20 10:01:47;;;;;;;87.30;35.67;;;;;;;5.30;100.00;98825.28;5089868;28;19958;-72
2021/11/20 10:04:26;;;;;;;84.72;37.50;;;;;;;5.26;100.00;98827.66;5091181;28;20032;-73
2021/11/20 10:07:09;;;;;;;84.13;37.20;;;;;;;5.29;100.00;98823.66;5089921;28;20594;-76
2021/11/20 10:09:34;;;;;;;83.32;40.63;;;;;;;4.94;100.00;98823.72;5111375;28;20036;-74
2021/11/20 10:12:13;;;;;;;84.47;37.45;;;;;;;5.11;100.00;98816.50;5112127;28;20055;-77
2021/11/20 10:14:51;;;;;;;81.75;37.53;;;;;;;5.52;100.00;98818.16;5113245;28;20038;-74
2021/11/20 10:17:38;;;;;;;79.78;36.33;;;;;;;5.64;100.00;98810.78;5111788;28;20472;-75
2021/11/20 10:20:14;;;;;;;83.43;38.30;;;;;;;5.55;100.00;98806.81;5110220;28;20118;-75
2021/11/20 10:23:10;;;;;;;93.05;42.25;;;;;;;5.56;100.00;98803.03;5112334;28;20028;-75
2021/11/20 10:25:54;;;;;;;87.18;38.75;;;;;;;5.55;100.00;98800.56;5111945;28;20122;-75
2021/11/20 10:29:00;;;;;;;80.20;36.28;;;;;;;5.83;100.00;98795.13;5112443;28;20480;-74
2021/11/20 10:31:48;;;;;;;82.47;40.70;;;;;;;5.71;100.00;98795.19;5117929;28;20164;-76
2021/11/20 10:34:22;;;;;;;73.82;36.83;;;;;;;5.73;100.00;98784.09;5110363;28;20028;-75
2021/11/20 10:36:58;;;;;;;73.05;36.63;;;;;;;5.83;100.00;98792.41;5093839;28;20023;-75
2021/11/20 10:39:26;;;;;;;;;;;;;;;5.86;100.00;98794.66;5090015;28;20070;-74
2021/11/20 10:42:01;;;;;;;57.78;30.52;;;;;;;5.87;100.00;98786.28;5090720;28;19904;-75
2021/11/20 10:44:47;;;;;;;67.60;31.35;;;;;;;5.93;100.00;98785.31;5091268;28;20032;-75
2021/11/20 10:47:16;;;;;;;55.38;30.15;;;;;;;5.78;100.00;98774.16;5091486;28;20111;-74
2021/11/20 10:49:55;;;;;;;57.55;30.92;;;;;;;5.81;100.00;98779.09;5093594;28;20092;-72
2021/11/20 10:52:40;;;;;;;74.43;32.25;;;;;;;5.74;100.00;98769.44;5092058;28;20055;-75
2021/11/20 10:55:15;;;;;;;55.00;29.15;;;;;;;5.77;100.00;98766.25;5090991;28;20130;-74
2021/11/20 10:58:18;;;;;;;54.67;29.10;;;;;;;5.83;100.00;98759.81;5090492;28;20063;-73
2021/11/20 11:00:46;;;;;;;60.08;30.42;;;;;;;5.92;100.00;98752.97;5069236;28;20043;-73
2021/11/20 11:03:33;;;;;;;54.50;30.73;;;;;;;5.84;100.00;98751.44;5070692;28;20021;-73
2021/11/20 11:06:29;;;;;;;50.47;30.33;;;;;;;6.03;100.00;98752.06;5069020;28;20043;-73
2021/11/20 11:09:01;;;;;;;;;;;;;;;6.00;100.00;98749.84;5069189;28;20063;-73
2021/11/20 11:11:32;;;;;;;60.50;30.52;;;;;;;5.87;100.00;98744.75;5088972;28;19927;-72
2021/11/20 11:14:00;;;;;;;63.85;31.65;;;;;;;6.16;100.00;98740.88;5108283;28;20484;-74
2021/11/20 11:16:49;;;;;;;59.45;32.15;;;;;;;6.38;100.00;98733.63;5094477;28;20095;-72
2021/11/20 11:19:33;;;;;;;58.95;31.02;;;;;;;6.40;100.00;98731.47;5093707;28;20107;-75
2021/11/20 11:22:33;;;;;;;57.22;29.58;;;;;;;6.36;100.00;98726.78;5092685;28;20028;-72
2021/11/20 11:25:17;;;;;;;51.38;30.10;;;;;;;6.54;100.00;98733.84;5090316;28;20071;-73